sensor_id;sensor_type;location;lat;lon;timestamp;P1;durP1;ratioP1;P2;durP2;ratioP2
50773;SDS011;36745;48.544;8.918;2022-08-21T00:00:35;5.05;;;3.67;;
50773;SDS011;36745;48.544;8.918;2022-08-21T00:06:39;5.70;;;3.35;;
50773;SDS011;36745;48.544;8.918;2022-08-21T00:09:40;7.60;;;3.92;;
50773;SDS011;36745;48.544;8.918;2022-08-21T00:12:41;6.88;;;3.50;;
50773;SDS011;36745;48.544;8.918;2022-08-21T00:15:43;5.93;;;3.72;;
50773;SDS011;36745;48.544;8.918;2022-08-21T00:18:44;4.93;;;3.63;;
50773;SDS011;36745;48.544;8.918;2022-08-21T00:21:48;7.18;;;3.58;;
50773;SDS011;36745;48.544;8.918;2022-08-21T00:24:49;7.68;;;3.33;;
50773;SDS011;36745;48.544;8.918;2022-08-21T00:27:50;5.47;;;4.03;;
50773;SDS011;36745;48.544;8.918;2022-08-21T00:30:54;3.35;;;3.05;;
50773;SDS011;36745;48.544;8.918;2022-08-21T00:33:57;3.95;;;3.20;;
50773;SDS011;36745;48.544;8.918;2022-08-21T00:36:57;4.05;;;3.20;;
50773;SDS011;36745;48.544;8.918;2022-08-21T00:43:03;4.00;;;3.60;;
50773;SDS011;36745;48.544;8.918;2022-08-21T00:46:05;5.43;;;3.75;;
50773;SDS011;36745;48.544;8.918;2022-08-21T00:49:08;5.78;;;3.63;;
50773;SDS011;36745;48.544;8.918;2022-08-21T00:52:11;5.78;;;3.58;;
50773;SDS011;36745;48.544;8.918;2022-08-21T00:55:18;5.68;;;3.40;;
50773;SDS011;36745;48.544;8.918;2022-08-21T00:58:20;8.73;;;4.32;;
50773;SDS011;36745;48.544;8.918;2022-08-21T01:01:22;5.97;;;3.80;;
50773;SDS011;36745;48.544;8.918;2022-08-21T01:04:23;5.95;;;3.88;;
50773;SDS011;36745;48.544;8.918;2022-08-21T01:07:24;5.43;;;3.60;;
50773;SDS011;36745;48.544;8.918;2022-08-21T01:10:25;4.85;;;3.38;;
50773;SDS011;36745;48.544;8.918;2022-08-21T01:13:27;4.10;;;3.53;;
50773;SDS011;36745;48.544;8.918;2022-08-21T01:16:31;6.05;;;5.15;;
50773;SDS011;36745;48.544;8.918;2022-08-21T01:19:33;3.38;;;2.97;;
50773;SDS011;36745;48.544;8.918;2022-08-21T01:22:34;3.70;;;3.40;;
50773;SDS011;36745;48.544;8.918;2022-08-21T01:25:36;5.53;;;3.63;;
50773;SDS011;36745;48.544;8.918;2022-08-21T01:28:41;6.55;;;3.35;;
50773;SDS011;36745;48.544;8.918;2022-08-21T01:32:05;4.55;;;3.50;;
50773;SDS011;36745;48.544;8.918;2022-08-21T01:35:10;4.32;;;3.72;;
50773;SDS011;36745;48.544;8.918;2022-08-21T01:38:12;3.70;;;3.40;;
50773;SDS011;36745;48.544;8.918;2022-08-21T01:41:13;4.47;;;3.72;;
50773;SDS011;36745;48.544;8.918;2022-08-21T01:44:15;5.97;;;3.78;;
50773;SDS011;36745;48.544;8.918;2022-08-21T01:47:16;4.70;;;3.88;;
50773;SDS011;36745;48.544;8.918;2022-08-21T01:50:18;6.22;;;3.92;;
50773;SDS011;36745;48.544;8.918;2022-08-21T01:53:20;4.97;;;3.65;;
50773;SDS011;36745;48.544;8.918;2022-08-21T01:56:21;4.63;;;3.80;;
50773;SDS011;36745;48.544;8.918;2022-08-21T01:59:23;5.57;;;4.03;;
50773;SDS011;36745;48.544;8.918;2022-08-21T02:02:25;6.65;;;4.00;;
50773;SDS011;36745;48.544;8.918;2022-08-21T02:05:26;4.10;;;3.70;;
50773;SDS011;36745;48.544;8.918;2022-08-21T02:08:27;4.85;;;3.50;;
50773;SDS011;36745;48.544;8.918;2022-08-21T02:11:29;4.05;;;3.72;;
50773;SDS011;36745;48.544;8.918;2022-08-21T02:14:31;4.27;;;3.87;;
50773;SDS011;36745;48.544;8.918;2022-08-21T02:17:43;4.05;;;3.55;;
50773;SDS011;36745;48.544;8.918;2022-08-21T02:20:47;6.75;;;3.83;;
50773;SDS011;36745;48.544;8.918;2022-08-21T02:23:49;5.03;;;3.80;;
50773;SDS011;36745;48.544;8.918;2022-08-21T02:26:50;6.20;;;3.90;;
50773;SDS011;36745;48.544;8.918;2022-08-21T02:29:51;4.53;;;4.10;;
50773;SDS011;36745;48.544;8.918;2022-08-21T02:32:52;4.93;;;4.30;;
50773;SDS011;36745;48.544;8.918;2022-08-21T02:35:53;4.40;;;3.95;;
50773;SDS011;36745;48.544;8.918;2022-08-21T02:38:55;4.18;;;3.78;;
50773;SDS011;36745;48.544;8.918;2022-08-21T02:41:56;5.45;;;3.78;;
50773;SDS011;36745;48.544;8.918;2022-08-21T02:44:57;4.90;;;4.05;;
50773;SDS011;36745;48.544;8.918;2022-08-21T02:47:59;8.18;;;4.32;;
50773;SDS011;36745;48.544;8.918;2022-08-21T02:51:05;5.95;;;3.55;;
50773;SDS011;36745;48.544;8.918;2022-08-21T02:54:12;6.70;;;4.18;;
50773;SDS011;36745;48.544;8.918;2022-08-21T02:57:12;4.03;;;3.42;;
50773;SDS011;36745;48.544;8.918;2022-08-21T03:00:14;5.45;;;4.10;;
50773;SDS011;36745;48.544;8.918;2022-08-21T03:03:16;6.37;;;4.10;;
50773;SDS011;36745;48.544;8.918;2022-08-21T03:06:19;5.07;;;4.05;;
50773;SDS011;36745;48.544;8.918;2022-08-21T03:09:21;4.60;;;3.80;;
50773;SDS011;36745;48.544;8.918;2022-08-21T03:12:22;4.93;;;3.83;;
50773;SDS011;36745;48.544;8.918;2022-08-21T03:15:23;6.07;;;4.10;;
50773;SDS011;36745;48.544;8.918;2022-08-21T03:18:25;5.40;;;4.18;;
50773;SDS011;36745;48.544;8.918;2022-08-21T03:21:26;5.75;;;3.63;;
50773;SDS011;36745;48.544;8.918;2022-08-21T03:24:28;6.45;;;3.85;;
50773;SDS011;36745;48.544;8.918;2022-08-21T03:27:28;6.82;;;4.00;;
50773;SDS011;36745;48.544;8.918;2022-08-21T03:30:31;7.30;;;4.03;;
50773;SDS011;36745;48.544;8.918;2022-08-21T03:33:32;5.18;;;3.70;;
50773;SDS011;36745;48.544;8.918;2022-08-21T03:36:33;8.05;;;3.75;;
50773;SDS011;36745;48.544;8.918;2022-08-21T03:39:34;4.43;;;3.55;;
50773;SDS011;36745;48.544;8.918;2022-08-21T03:42:35;4.88;;;3.78;;
50773;SDS011;36745;48.544;8.918;2022-08-21T03:45:37;7.28;;;3.83;;
50773;SDS011;36745;48.544;8.918;2022-08-21T03:48:39;4.88;;;3.97;;
50773;SDS011;36745;48.544;8.918;2022-08-21T03:51:40;8.60;;;3.90;;
50773;SDS011;36745;48.544;8.918;2022-08-21T03:54:41;9.52;;;4.35;;
50773;SDS011;36745;48.544;8.918;2022-08-21T03:57:42;4.65;;;4.05;;
50773;SDS011;36745;48.544;8.918;2022-08-21T04:00:49;6.43;;;3.40;;
50773;SDS011;36745;48.544;8.918;2022-08-21T04:03:53;4.18;;;3.78;;
50773;SDS011;36745;48.544;8.918;2022-08-21T04:06:54;6.43;;;4.05;;
50773;SDS011;36745;48.544;8.918;2022-08-21T04:09:56;7.00;;;4.75;;
50773;SDS011;36745;48.544;8.918;2022-08-21T04:12:57;4.85;;;4.32;;
50773;SDS011;36745;48.544;8.918;2022-08-21T04:15:58;4.53;;;3.80;;
50773;SDS011;36745;48.544;8.918;2022-08-21T04:18:59;6.80;;;4.40;;
50773;SDS011;36745;48.544;8.918;2022-08-21T04:22:00;5.05;;;4.10;;
50773;SDS011;36745;48.544;8.918;2022-08-21T04:25:04;5.22;;;4.22;;
50773;SDS011;36745;48.544;8.918;2022-08-21T04:28:05;4.70;;;4.03;;
50773;SDS011;36745;48.544;8.918;2022-08-21T04:31:07;4.78;;;4.20;;
50773;SDS011;36745;48.544;8.918;2022-08-21T04:34:09;6.97;;;4.27;;
50773;SDS011;36745;48.544;8.918;2022-08-21T04:37:10;4.78;;;4.25;;
50773;SDS011;36745;48.544;8.918;2022-08-21T04:40:12;5.03;;;4.05;;
50773;SDS011;36745;48.544;8.918;2022-08-21T04:46:15;4.95;;;4.00;;
50773;SDS011;36745;48.544;8.918;2022-08-21T04:49:16;6.53;;;4.57;;
50773;SDS011;36745;48.544;8.918;2022-08-21T04:52:19;9.35;;;4.30;;
50773;SDS011;36745;48.544;8.918;2022-08-21T04:55:26;5.35;;;3.90;;
50773;SDS011;36745;48.544;8.918;2022-08-21T04:58:28;5.47;;;3.78;;
50773;SDS011;36745;48.544;8.918;2022-08-21T05:01:31;6.93;;;4.40;;
50773;SDS011;36745;48.544;8.918;2022-08-21T05:04:36;5.05;;;4.05;;
50773;SDS011;36745;48.544;8.918;2022-08-21T05:07:41;4.75;;;4.25;;
50773;SDS011;36745;48.544;8.918;2022-08-21T05:13:46;8.05;;;5.15;;
50773;SDS011;36745;48.544;8.918;2022-08-21T05:16:47;7.00;;;4.60;;
50773;SDS011;36745;48.544;8.918;2022-08-21T05:19:48;8.90;;;4.60;;
50773;SDS011;36745;48.544;8.918;2022-08-21T05:22:49;6.95;;;4.65;;
50773;SDS011;36745;48.544;8.918;2022-08-21T05:25:51;5.90;;;4.55;;
50773;SDS011;36745;48.544;8.918;2022-08-21T05:28:55;4.88;;;3.72;;
50773;SDS011;36745;48.544;8.918;2022-08-21T05:31:56;5.28;;;3.55;;
50773;SDS011;36745;48.544;8.918;2022-08-21T05:34:57;4.82;;;3.53;;
50773;SDS011;36745;48.544;8.918;2022-08-21T05:37:58;4.07;;;3.03;;
50773;SDS011;36745;48.544;8.918;2022-08-21T05:41:00;4.80;;;3.13;;
50773;SDS011;36745;48.544;8.918;2022-08-21T05:44:01;3.78;;;3.00;;
50773;SDS011;36745;48.544;8.918;2022-08-21T05:47:03;9.50;;;3.72;;
50773;SDS011;36745;48.544;8.918;2022-08-21T05:50:09;5.80;;;3.50;;
50773;SDS011;36745;48.544;8.918;2022-08-21T05:53:10;8.23;;;3.90;;
50773;SDS011;36745;48.544;8.918;2022-08-21T05:56:12;5.80;;;4.38;;
50773;SDS011;36745;48.544;8.918;2022-08-21T05:59:14;4.28;;;3.65;;
50773;SDS011;36745;48.544;8.918;2022-08-21T06:02:16;6.95;;;4.05;;
50773;SDS011;36745;48.544;8.918;2022-08-21T06:05:18;5.70;;;4.38;;
50773;SDS011;36745;48.544;8.918;2022-08-21T06:08:20;4.75;;;3.90;;
50773;SDS011;36745;48.544;8.918;2022-08-21T06:11:22;6.23;;;3.90;;
50773;SDS011;36745;48.544;8.918;2022-08-21T06:14:23;7.43;;;3.95;;
50773;SDS011;36745;48.544;8.918;2022-08-21T06:17:24;6.85;;;4.00;;
50773;SDS011;36745;48.544;8.918;2022-08-21T06:20:25;7.68;;;4.43;;
50773;SDS011;36745;48.544;8.918;2022-08-21T06:23:26;6.45;;;5.32;;
50773;SDS011;36745;48.544;8.918;2022-08-21T06:26:27;6.43;;;5.20;;
50773;SDS011;36745;48.544;8.918;2022-08-21T06:29:29;6.90;;;5.40;;
50773;SDS011;36745;48.544;8.918;2022-08-21T06:32:30;6.25;;;5.30;;
50773;SDS011;36745;48.544;8.918;2022-08-21T06:35:31;7.65;;;5.57;;
50773;SDS011;36745;48.544;8.918;2022-08-21T06:38:32;6.68;;;5.32;;
50773;SDS011;36745;48.544;8.918;2022-08-21T06:41:33;8.13;;;5.25;;
50773;SDS011;36745;48.544;8.918;2022-08-21T06:44:34;5.95;;;5.00;;
50773;SDS011;36745;48.544;8.918;2022-08-21T06:47:35;7.57;;;5.10;;
50773;SDS011;36745;48.544;8.918;2022-08-21T06:50:36;6.80;;;4.63;;
50773;SDS011;36745;48.544;8.918;2022-08-21T06:53:37;6.05;;;4.53;;
50773;SDS011;36745;48.544;8.918;2022-08-21T06:56:38;7.45;;;4.60;;
50773;SDS011;36745;48.544;8.918;2022-08-21T06:59:39;5.35;;;4.32;;
50773;SDS011;36745;48.544;8.918;2022-08-21T07:02:43;7.13;;;4.30;;
50773;SDS011;36745;48.544;8.918;2022-08-21T07:05:44;7.68;;;4.13;;
50773;SDS011;36745;48.544;8.918;2022-08-21T07:08:45;4.75;;;3.97;;
50773;SDS011;36745;48.544;8.918;2022-08-21T07:11:46;7.20;;;3.90;;
50773;SDS011;36745;48.544;8.918;2022-08-21T07:14:51;10.02;;;4.00;;
50773;SDS011;36745;48.544;8.918;2022-08-21T07:17:52;5.75;;;3.70;;
50773;SDS011;36745;48.544;8.918;2022-08-21T07:20:54;6.78;;;3.90;;
50773;SDS011;36745;48.544;8.918;2022-08-21T07:23:55;8.38;;;4.10;;
50773;SDS011;36745;48.544;8.918;2022-08-21T07:30:07;6.43;;;4.30;;
50773;SDS011;36745;48.544;8.918;2022-08-21T07:33:08;4.43;;;3.58;;
50773;SDS011;36745;48.544;8.918;2022-08-21T07:36:10;7.55;;;4.05;;
50773;SDS011;36745;48.544;8.918;2022-08-21T07:39:11;6.40;;;3.88;;
50773;SDS011;36745;48.544;8.918;2022-08-21T07:42:12;5.75;;;3.65;;
50773;SDS011;36745;48.544;8.918;2022-08-21T07:45:14;6.28;;;3.55;;
50773;SDS011;36745;48.544;8.918;2022-08-21T07:48:16;5.53;;;3.83;;
50773;SDS011;36745;48.544;8.918;2022-08-21T07:51:17;6.00;;;4.10;;
50773;SDS011;36745;48.544;8.918;2022-08-21T07:54:20;7.60;;;3.53;;
50773;SDS011;36745;48.544;8.918;2022-08-21T07:57:21;6.78;;;3.83;;
50773;SDS011;36745;48.544;8.918;2022-08-21T08:00:23;6.70;;;3.65;;
50773;SDS011;36745;48.544;8.918;2022-08-21T08:03:25;5.70;;;3.80;;
50773;SDS011;36745;48.544;8.918;2022-08-21T08:06:26;6.72;;;3.30;;
50773;SDS011;36745;48.544;8.918;2022-08-21T08:09:27;9.52;;;3.65;;
50773;SDS011;36745;48.544;8.918;2022-08-21T08:12:28;7.70;;;3.65;;
50773;SDS011;36745;48.544;8.918;2022-08-21T08:15:30;7.00;;;4.03;;
50773;SDS011;36745;48.544;8.918;2022-08-21T08:18:30;6.75;;;3.40;;
50773;SDS011;36745;48.544;8.918;2022-08-21T08:21:35;7.28;;;4.25;;
50773;SDS011;36745;48.544;8.918;2022-08-21T08:24:40;8.30;;;4.00;;
50773;SDS011;36745;48.544;8.918;2022-08-21T08:27:41;7.22;;;3.90;;
50773;SDS011;36745;48.544;8.918;2022-08-21T08:30:43;7.55;;;4.13;;
50773;SDS011;36745;48.544;8.918;2022-08-21T08:33:45;7.18;;;4.05;;
50773;SDS011;36745;48.544;8.918;2022-08-21T08:36:49;7.70;;;3.65;;
50773;SDS011;36745;48.544;8.918;2022-08-21T08:39:50;6.88;;;3.70;;
50773;SDS011;36745;48.544;8.918;2022-08-21T08:42:51;7.22;;;3.75;;
50773;SDS011;36745;48.544;8.918;2022-08-21T08:45:55;6.03;;;3.50;;
50773;SDS011;36745;48.544;8.918;2022-08-21T08:52:30;7.60;;;3.67;;
50773;SDS011;36745;48.544;8.918;2022-08-21T08:55:42;7.10;;;3.60;;
50773;SDS011;36745;48.544;8.918;2022-08-21T08:58:44;7.22;;;3.55;;
50773;SDS011;36745;48.544;8.918;2022-08-21T09:01:45;7.68;;;3.50;;
50773;SDS011;36745;48.544;8.918;2022-08-21T09:04:49;7.53;;;4.07;;
50773;SDS011;36745;48.544;8.918;2022-08-21T09:21:48;6.45;;;3.60;;
50773;SDS011;36745;48.544;8.918;2022-08-21T09:25:15;6.35;;;3.50;;
50773;SDS011;36745;48.544;8.918;2022-08-21T09:28:32;7.45;;;3.40;;
50773;SDS011;36745;48.544;8.918;2022-08-21T09:31:39;7.55;;;2.83;;
50773;SDS011;36745;48.544;8.918;2022-08-21T09:34:40;7.22;;;3.05;;
50773;SDS011;36745;48.544;8.918;2022-08-21T09:40:59;6.05;;;3.25;;
50773;SDS011;36745;48.544;8.918;2022-08-21T09:44:07;8.23;;;3.47;;
50773;SDS011;36745;48.544;8.918;2022-08-21T09:47:09;7.85;;;3.13;;
50773;SDS011;36745;48.544;8.918;2022-08-21T09:50:14;7.13;;;2.92;;
50773;SDS011;36745;48.544;8.918;2022-08-21T09:53:27;11.90;;;6.00;;
50773;SDS011;36745;48.544;8.918;2022-08-21T09:56:35;7.45;;;3.30;;
50773;SDS011;36745;48.544;8.918;2022-08-21T10:00:06;5.47;;;3.42;;
50773;SDS011;36745;48.544;8.918;2022-08-21T10:03:27;9.70;;;3.92;;
50773;SDS011;36745;48.544;8.918;2022-08-21T10:06:28;7.68;;;3.30;;
50773;SDS011;36745;48.544;8.918;2022-08-21T10:09:29;10.07;;;3.20;;
50773;SDS011;36745;48.544;8.918;2022-08-21T10:30:00;9.43;;;3.17;;
50773;SDS011;36745;48.544;8.918;2022-08-21T10:36:34;20.05;;;12.80;;
50773;SDS011;36745;48.544;8.918;2022-08-21T10:40:07;7.20;;;2.88;;
50773;SDS011;36745;48.544;8.918;2022-08-21T10:46:58;5.25;;;2.83;;
50773;SDS011;36745;48.544;8.918;2022-08-21T10:56:59;6.07;;;2.90;;
50773;SDS011;36745;48.544;8.918;2022-08-21T11:00:07;7.97;;;2.50;;
50773;SDS011;36745;48.544;8.918;2022-08-21T11:03:33;8.02;;;3.10;;
50773;SDS011;36745;48.544;8.918;2022-08-21T11:06:44;5.70;;;2.80;;
50773;SDS011;36745;48.544;8.918;2022-08-21T11:09:49;6.93;;;2.70;;
50773;SDS011;36745;48.544;8.918;2022-08-21T11:12:53;5.10;;;3.00;;
50773;SDS011;36745;48.544;8.918;2022-08-21T11:16:21;4.47;;;2.70;;
50773;SDS011;36745;48.544;8.918;2022-08-21T11:19:33;3.78;;;2.50;;
50773;SDS011;36745;48.544;8.918;2022-08-21T11:22:40;6.28;;;2.63;;
50773;SDS011;36745;48.544;8.918;2022-08-21T11:25:51;6.25;;;2.95;;
50773;SDS011;36745;48.544;8.918;2022-08-21T11:29:11;5.22;;;2.47;;
50773;SDS011;36745;48.544;8.918;2022-08-21T11:35:47;5.70;;;2.80;;
50773;SDS011;36745;48.544;8.918;2022-08-21T11:38:57;6.05;;;2.70;;
50773;SDS011;36745;48.544;8.918;2022-08-21T11:45:35;5.70;;;2.40;;
50773;SDS011;36745;48.544;8.918;2022-08-21T11:51:50;4.13;;;2.70;;
50773;SDS011;36745;48.544;8.918;2022-08-21T11:55:25;2.92;;;2.35;;
50773;SDS011;36745;48.544;8.918;2022-08-21T11:58:43;3.70;;;2.38;;
50773;SDS011;36745;48.544;8.918;2022-08-21T12:01:48;5.47;;;2.40;;
50773;SDS011;36745;48.544;8.918;2022-08-21T12:04:52;4.95;;;2.38;;
50773;SDS011;36745;48.544;8.918;2022-08-21T12:08:00;6.32;;;2.40;;
50773;SDS011;36745;48.544;8.918;2022-08-21T12:11:06;3.70;;;2.00;;
50773;SDS011;36745;48.544;8.918;2022-08-21T12:14:17;3.00;;;2.20;;
50773;SDS011;36745;48.544;8.918;2022-08-21T12:17:20;3.45;;;2.00;;
50773;SDS011;36745;48.544;8.918;2022-08-21T12:24:05;5.38;;;2.50;;
50773;SDS011;36745;48.544;8.918;2022-08-21T12:30:34;3.00;;;1.95;;
50773;SDS011;36745;48.544;8.918;2022-08-21T12:33:38;3.97;;;1.98;;
50773;SDS011;36745;48.544;8.918;2022-08-21T12:36:45;3.30;;;2.10;;
50773;SDS011;36745;48.544;8.918;2022-08-21T12:39:51;3.38;;;2.20;;
50773;SDS011;36745;48.544;8.918;2022-08-21T12:42:55;3.60;;;2.10;;
50773;SDS011;36745;48.544;8.918;2022-08-21T12:45:59;3.53;;;2.10;;
50773;SDS011;36745;48.544;8.918;2022-08-21T12:49:13;5.50;;;2.03;;
50773;SDS011;36745;48.544;8.918;2022-08-21T12:52:22;3.60;;;2.22;;
50773;SDS011;36745;48.544;8.918;2022-08-21T12:55:30;2.90;;;1.95;;
50773;SDS011;36745;48.544;8.918;2022-08-21T12:58:35;3.95;;;1.90;;
50773;SDS011;36745;48.544;8.918;2022-08-21T13:01:38;2.55;;;2.30;;
50773;SDS011;36745;48.544;8.918;2022-08-21T13:04:51;3.10;;;2.60;;
50773;SDS011;36745;48.544;8.918;2022-08-21T13:07:57;2.83;;;2.00;;
50773;SDS011;36745;48.544;8.918;2022-08-21T13:11:00;6.00;;;2.83;;
50773;SDS011;36745;48.544;8.918;2022-08-21T13:14:22;4.30;;;2.60;;
50773;SDS011;36745;48.544;8.918;2022-08-21T13:17:31;4.78;;;2.05;;
50773;SDS011;36745;48.544;8.918;2022-08-21T13:20:36;2.85;;;2.05;;
50773;SDS011;36745;48.544;8.918;2022-08-21T13:23:39;2.22;;;1.90;;
50773;SDS011;36745;48.544;8.918;2022-08-21T13:26:41;3.85;;;2.15;;
50773;SDS011;36745;48.544;8.918;2022-08-21T13:29:45;4.15;;;2.15;;
50773;SDS011;36745;48.544;8.918;2022-08-21T13:32:51;5.72;;;2.58;;
50773;SDS011;36745;48.544;8.918;2022-08-21T13:36:02;4.47;;;2.38;;
50773;SDS011;36745;48.544;8.918;2022-08-21T13:39:04;2.53;;;2.10;;
50773;SDS011;36745;48.544;8.918;2022-08-21T13:42:10;4.47;;;2.50;;
50773;SDS011;36745;48.544;8.918;2022-08-21T13:45:14;2.20;;;1.95;;
50773;SDS011;36745;48.544;8.918;2022-08-21T13:48:23;4.13;;;2.40;;
50773;SDS011;36745;48.544;8.918;2022-08-21T13:51:27;4.25;;;2.35;;
50773;SDS011;36745;48.544;8.918;2022-08-21T13:54:32;5.97;;;2.30;;
50773;SDS011;36745;48.544;8.918;2022-08-21T13:57:38;4.43;;;2.10;;
50773;SDS011;36745;48.544;8.918;2022-08-21T14:00:51;2.72;;;2.10;;
50773;SDS011;36745;48.544;8.918;2022-08-21T14:07:18;4.40;;;2.03;;
50773;SDS011;36745;48.544;8.918;2022-08-21T14:10:24;2.22;;;1.88;;
50773;SDS011;36745;48.544;8.918;2022-08-21T14:13:44;4.32;;;2.28;;
50773;SDS011;36745;48.544;8.918;2022-08-21T14:16:53;2.75;;;2.00;;
50773;SDS011;36745;48.544;8.918;2022-08-21T14:19:57;3.67;;;2.45;;
50773;SDS011;36745;48.544;8.918;2022-08-21T14:22:59;4.18;;;2.53;;
50773;SDS011;36745;48.544;8.918;2022-08-21T14:26:02;5.20;;;2.35;;
50773;SDS011;36745;48.544;8.918;2022-08-21T14:29:06;4.68;;;2.40;;
50773;SDS011;36745;48.544;8.918;2022-08-21T14:32:15;3.63;;;2.50;;
50773;SDS011;36745;48.544;8.918;2022-08-21T14:35:23;4.03;;;2.30;;
50773;SDS011;36745;48.544;8.918;2022-08-21T14:38:24;3.70;;;2.03;;
50773;SDS011;36745;48.544;8.918;2022-08-21T14:41:31;4.53;;;2.30;;
50773;SDS011;36745;48.544;8.918;2022-08-21T14:44:34;3.63;;;2.40;;
50773;SDS011;36745;48.544;8.918;2022-08-21T14:47:35;5.97;;;2.25;;
50773;SDS011;36745;48.544;8.918;2022-08-21T14:50:40;3.92;;;2.55;;
50773;SDS011;36745;48.544;8.918;2022-08-21T14:53:41;5.03;;;2.70;;
50773;SDS011;36745;48.544;8.918;2022-08-21T14:56:42;5.03;;;2.10;;
50773;SDS011;36745;48.544;8.918;2022-08-21T14:59:43;6.38;;;2.30;;
50773;SDS011;36745;48.544;8.918;2022-08-21T15:02:47;3.15;;;2.15;;
50773;SDS011;36745;48.544;8.918;2022-08-21T15:05:48;5.50;;;2.58;;
50773;SDS011;36745;48.544;8.918;2022-08-21T15:08:52;2.30;;;1.90;;
50773;SDS011;36745;48.544;8.918;2022-08-21T15:11:56;4.82;;;2.33;;
50773;SDS011;36745;48.544;8.918;2022-08-21T15:14:59;4.15;;;2.33;;
50773;SDS011;36745;48.544;8.918;2022-08-21T15:18:00;5.28;;;2.60;;
50773;SDS011;36745;48.544;8.918;2022-08-21T15:21:03;4.80;;;2.50;;
50773;SDS011;36745;48.544;8.918;2022-08-21T15:24:07;6.75;;;2.70;;
50773;SDS011;36745;48.544;8.918;2022-08-21T15:27:09;3.60;;;2.53;;
50773;SDS011;36745;48.544;8.918;2022-08-21T15:30:10;3.63;;;1.93;;
50773;SDS011;36745;48.544;8.918;2022-08-21T15:33:15;3.97;;;2.10;;
50773;SDS011;36745;48.544;8.918;2022-08-21T15:36:16;3.45;;;2.40;;
50773;SDS011;36745;48.544;8.918;2022-08-21T15:39:17;5.15;;;2.60;;
50773;SDS011;36745;48.544;8.918;2022-08-21T15:42:21;5.40;;;2.35;;
50773;SDS011;36745;48.544;8.918;2022-08-21T15:45:23;5.80;;;2.40;;
50773;SDS011;36745;48.544;8.918;2022-08-21T15:48:27;2.67;;;2.25;;
50773;SDS011;36745;48.544;8.918;2022-08-21T15:51:29;4.18;;;2.40;;
50773;SDS011;36745;48.544;8.918;2022-08-21T15:54:30;5.93;;;2.60;;
50773;SDS011;36745;48.544;8.918;2022-08-21T15:57:31;3.97;;;2.60;;
50773;SDS011;36745;48.544;8.918;2022-08-21T16:00:39;3.40;;;2.28;;
50773;SDS011;36745;48.544;8.918;2022-08-21T16:03:43;4.13;;;2.65;;
50773;SDS011;36745;48.544;8.918;2022-08-21T16:06:49;3.75;;;2.80;;
50773;SDS011;36745;48.544;8.918;2022-08-21T16:09:50;4.55;;;2.88;;
50773;SDS011;36745;48.544;8.918;2022-08-21T16:12:54;8.48;;;4.55;;
50773;SDS011;36745;48.544;8.918;2022-08-21T16:15:59;5.53;;;2.72;;
50773;SDS011;36745;48.544;8.918;2022-08-21T16:19:00;6.00;;;2.70;;
50773;SDS011;36745;48.544;8.918;2022-08-21T16:22:03;5.40;;;2.50;;
50773;SDS011;36745;48.544;8.918;2022-08-21T16:25:05;4.22;;;2.75;;
50773;SDS011;36745;48.544;8.918;2022-08-21T16:28:07;5.07;;;2.65;;
50773;SDS011;36745;48.544;8.918;2022-08-21T16:31:11;4.10;;;2.92;;
50773;SDS011;36745;48.544;8.918;2022-08-21T16:34:15;5.75;;;3.05;;
50773;SDS011;36745;48.544;8.918;2022-08-21T16:37:20;7.25;;;2.75;;
50773;SDS011;36745;48.544;8.918;2022-08-21T16:40:22;5.47;;;2.50;;
50773;SDS011;36745;48.544;8.918;2022-08-21T16:43:24;6.50;;;2.83;;
50773;SDS011;36745;48.544;8.918;2022-08-21T16:46:27;4.80;;;2.63;;
50773;SDS011;36745;48.544;8.918;2022-08-21T16:49:33;6.05;;;3.67;;
50773;SDS011;36745;48.544;8.918;2022-08-21T16:52:34;4.30;;;3.15;;
50773;SDS011;36745;48.544;8.918;2022-08-21T16:55:36;5.78;;;2.80;;
50773;SDS011;36745;48.544;8.918;2022-08-21T16:58:39;7.47;;;2.97;;
50773;SDS011;36745;48.544;8.918;2022-08-21T17:01:43;5.32;;;2.50;;
50773;SDS011;36745;48.544;8.918;2022-08-21T17:04:45;5.22;;;2.85;;
50773;SDS011;36745;48.544;8.918;2022-08-21T17:07:46;5.93;;;3.28;;
50773;SDS011;36745;48.544;8.918;2022-08-21T17:10:48;6.78;;;3.10;;
50773;SDS011;36745;48.544;8.918;2022-08-21T17:13:50;5.78;;;3.10;;
50773;SDS011;36745;48.544;8.918;2022-08-21T17:16:52;7.63;;;3.33;;
50773;SDS011;36745;48.544;8.918;2022-08-21T17:19:54;5.78;;;3.33;;
50773;SDS011;36745;48.544;8.918;2022-08-21T17:22:58;5.78;;;3.15;;
50773;SDS011;36745;48.544;8.918;2022-08-21T17:26:00;7.55;;;2.95;;
50773;SDS011;36745;48.544;8.918;2022-08-21T17:29:01;7.07;;;3.30;;
50773;SDS011;36745;48.544;8.918;2022-08-21T17:32:10;5.53;;;2.80;;
50773;SDS011;36745;48.544;8.918;2022-08-21T17:35:12;5.47;;;3.10;;
50773;SDS011;36745;48.544;8.918;2022-08-21T17:38:13;6.90;;;4.13;;
50773;SDS011;36745;48.544;8.918;2022-08-21T17:41:17;5.20;;;3.20;;
50773;SDS011;36745;48.544;8.918;2022-08-21T17:44:20;5.85;;;3.13;;
50773;SDS011;36745;48.544;8.918;2022-08-21T17:47:24;5.82;;;3.53;;
50773;SDS011;36745;48.544;8.918;2022-08-21T17:50:25;6.20;;;3.25;;
50773;SDS011;36745;48.544;8.918;2022-08-21T17:53:29;8.43;;;3.17;;
50773;SDS011;36745;48.544;8.918;2022-08-21T17:56:32;12.48;;;4.10;;
50773;SDS011;36745;48.544;8.918;2022-08-21T17:59:38;11.52;;;3.22;;
50773;SDS011;36745;48.544;8.918;2022-08-21T18:02:40;4.28;;;3.08;;
50773;SDS011;36745;48.544;8.918;2022-08-21T18:05:43;9.30;;;3.05;;
50773;SDS011;36745;48.544;8.918;2022-08-21T18:08:48;13.15;;;3.70;;
50773;SDS011;36745;48.544;8.918;2022-08-21T18:11:49;14.05;;;3.15;;
50773;SDS011;36745;48.544;8.918;2022-08-21T18:14:55;7.45;;;3.38;;
50773;SDS011;36745;48.544;8.918;2022-08-21T18:17:56;9.55;;;3.45;;
50773;SDS011;36745;48.544;8.918;2022-08-21T18:20:57;7.13;;;3.45;;
50773;SDS011;36745;48.544;8.918;2022-08-21T18:23:58;9.48;;;4.65;;
50773;SDS011;36745;48.544;8.918;2022-08-21T18:26:59;10.43;;;4.30;;
50773;SDS011;36745;48.544;8.918;2022-08-21T18:30:01;13.57;;;7.13;;
50773;SDS011;36745;48.544;8.918;2022-08-21T18:33:03;36.40;;;25.98;;
50773;SDS011;36745;48.544;8.918;2022-08-21T18:36:05;36.17;;;23.50;;
50773;SDS011;36745;48.544;8.918;2022-08-21T18:39:06;28.85;;;17.48;;
50773;SDS011;36745;48.544;8.918;2022-08-21T18:42:08;22.40;;;14.75;;
50773;SDS011;36745;48.544;8.918;2022-08-21T18:45:15;13.52;;;6.90;;
50773;SDS011;36745;48.544;8.918;2022-08-21T18:48:20;6.82;;;4.05;;
50773;SDS011;36745;48.544;8.918;2022-08-21T18:51:21;10.05;;;4.20;;
50773;SDS011;36745;48.544;8.918;2022-08-21T18:54:23;8.98;;;4.03;;
50773;SDS011;36745;48.544;8.918;2022-08-21T18:57:24;11.52;;;4.15;;
50773;SDS011;36745;48.544;8.918;2022-08-21T19:00:31;15.60;;;4.15;;
50773;SDS011;36745;48.544;8.918;2022-08-21T19:03:37;10.18;;;3.80;;
50773;SDS011;36745;48.544;8.918;2022-08-21T19:06:38;13.90;;;3.95;;
50773;SDS011;36745;48.544;8.918;2022-08-21T19:09:39;11.65;;;4.32;;
50773;SDS011;36745;48.544;8.918;2022-08-21T19:12:43;7.30;;;3.70;;
50773;SDS011;36745;48.544;8.918;2022-08-21T19:15:46;8.38;;;4.00;;
50773;SDS011;36745;48.544;8.918;2022-08-21T19:18:52;5.88;;;3.67;;
50773;SDS011;36745;48.544;8.918;2022-08-21T19:21:56;8.88;;;3.72;;
50773;SDS011;36745;48.544;8.918;2022-08-21T19:24:57;6.30;;;4.40;;
50773;SDS011;36745;48.544;8.918;2022-08-21T19:27:58;8.40;;;4.03;;
50773;SDS011;36745;48.544;8.918;2022-08-21T19:31:03;6.05;;;4.10;;
50773;SDS011;36745;48.544;8.918;2022-08-21T19:34:11;7.97;;;4.13;;
50773;SDS011;36745;48.544;8.918;2022-08-21T19:37:18;6.20;;;3.75;;
50773;SDS011;36745;48.544;8.918;2022-08-21T19:40:19;12.75;;;4.22;;
50773;SDS011;36745;48.544;8.918;2022-08-21T19:43:23;6.20;;;3.72;;
50773;SDS011;36745;48.544;8.918;2022-08-21T19:46:25;6.47;;;3.50;;
50773;SDS011;36745;48.544;8.918;2022-08-21T19:49:32;6.63;;;3.83;;
50773;SDS011;36745;48.544;8.918;2022-08-21T19:52:34;7.78;;;3.97;;